sensor_id;sensor_type;location;lat;lon;timestamp;pressure;altitude;pressure_sealevel;temperature
78369;BMP280;71113;43.092;-89.268;2023-11-21T00:01:57;98643.09;;;20.35
78369;BMP280;71113;43.092;-89.268;2023-11-21T00:04:24;98649.63;;;20.37
78369;BMP280;71113;43.092;-89.268;2023-11-21T00:06:51;98660.53;;;20.36
78369;BMP280;71113;43.092;-89.268;2023-11-21T00:09:17;98653.38;;;20.36
78369;BMP280;71113;43.092;-89.268;2023-11-21T00:11:43;98657.88;;;20.36
78369;BMP280;71113;43.092;-89.268;2023-11-21T00:14:11;98652.44;;;20.32
78369;BMP280;71113;43.092;-89.268;2023-11-21T00:16:37;98642.91;;;20.31
78369;BMP280;71113;43.092;-89.268;2023-11-21T00:19:02;98649.66;;;20.29
78369;BMP280;71113;43.092;-89.268;2023-11-21T00:21:28;98639.34;;;20.27
78369;BMP280;71113;43.092;-89.268;2023-11-21T00:23:54;98642.19;;;20.22
78369;BMP280;71113;43.092;-89.268;2023-11-21T00:26:20;98640.00;;;20.24
78369;BMP280;71113;43.092;-89.268;2023-11-21T00:28:46;98634.72;;;20.24
78369;BMP280;71113;43.092;-89.268;2023-11-21T00:31:12;98638.56;;;20.27
78369;BMP280;71113;43.092;-89.268;2023-11-21T00:33:37;98645.78;;;20.26
78369;BMP280;71113;43.092;-89.268;2023-11-21T00:36:04;98644.66;;;20.27
78369;BMP280;71113;43.092;-89.268;2023-11-21T00:38:38;98654.47;;;20.27
78369;BMP280;71113;43.092;-89.268;2023-11-21T00:41:06;98659.03;;;20.26
78369;BMP280;71113;43.092;-89.268;2023-11-21T00:43:32;98649.94;;;20.27
78369;BMP280;71113;43.092;-89.268;2023-11-21T00:45:59;98654.19;;;20.28
78369;BMP280;71113;43.092;-89.268;2023-11-21T00:48:25;98637.81;;;20.26
78369;BMP280;71113;43.092;-89.268;2023-11-21T00:50:51;98653.09;;;20.29
78369;BMP280;71113;43.092;-89.268;2023-11-21T00:53:16;98635.63;;;20.28
78369;BMP280;71113;43.092;-89.268;2023-11-21T00:55:42;98634.41;;;20.26
78369;BMP280;71113;43.092;-89.268;2023-11-21T00:58:08;98648.44;;;20.26
78369;BMP280;71113;43.092;-89.268;2023-11-21T01:00:34;98652.16;;;20.25
78369;BMP280;71113;43.092;-89.268;2023-11-21T01:03:00;98649.94;;;20.27
78369;BMP280;71113;43.092;-89.268;2023-11-21T01:05:26;98665.56;;;20.29
78369;BMP280;71113;43.092;-89.268;2023-11-21T01:07:52;98670.84;;;20.29
78369;BMP280;71113;43.092;-89.268;2023-11-21T01:10:18;98685.66;;;20.30
78369;BMP280;71113;43.092;-89.268;2023-11-21T01:12:44;98685.66;;;20.30
78369;BMP280;71113;43.092;-89.268;2023-11-21T01:15:10;98681.91;;;20.31
78369;BMP280;71113;43.092;-89.268;2023-11-21T01:17:38;98681.09;;;20.48
78369;BMP280;71113;43.092;-89.268;2023-11-21T01:20:04;98679.16;;;20.57
78369;BMP280;71113;43.092;-89.268;2023-11-21T01:22:38;98664.53;;;20.51
78369;BMP280;71113;43.092;-89.268;2023-11-21T01:25:04;98645.34;;;20.54
78369;BMP280;71113;43.092;-89.268;2023-11-21T01:27:33;98650.22;;;20.52
78369;BMP280;71113;43.092;-89.268;2023-11-21T01:30:01;98654.84;;;20.55
78369;BMP280;71113;43.092;-89.268;2023-11-21T01:32:26;98655.16;;;20.53
78369;BMP280;71113;43.092;-89.268;2023-11-21T01:34:54;98647.56;;;20.52
78369;BMP280;71113;43.092;-89.268;2023-11-21T01:37:21;98636.97;;;20.52
78369;BMP280;71113;43.092;-89.268;2023-11-21T01:39:49;98642.25;;;20.52
78369;BMP280;71113;43.092;-89.268;2023-11-21T01:42:16;98643.00;;;20.52
78369;BMP280;71113;43.092;-89.268;2023-11-21T01:44:42;98646.44;;;20.53
78369;BMP280;71113;43.092;-89.268;2023-11-21T01:47:10;98648.31;;;20.52
78369;BMP280;71113;43.092;-89.268;2023-11-21T01:49:37;98642.69;;;20.54
78369;BMP280;71113;43.092;-89.268;2023-11-21T01:52:05;98648.47;;;20.56
78369;BMP280;71113;43.092;-89.268;2023-11-21T01:54:33;98644.69;;;20.57
78369;BMP280;71113;43.092;-89.268;2023-11-21T01:57:00;98644.38;;;20.58
78369;BMP280;71113;43.092;-89.268;2023-11-21T01:59:36;98654.97;;;20.58
78369;BMP280;71113;43.092;-89.268;2023-11-21T02:02:04;98656.56;;;20.59
78369;BMP280;71113;43.092;-89.268;2023-11-21T02:04:35;98662.66;;;20.60
78369;BMP280;71113;43.092;-89.268;2023-11-21T02:07:02;98654.69;;;20.60
78369;BMP280;71113;43.092;-89.268;2023-11-21T02:09:33;98652.44;;;20.70
78369;BMP280;71113;43.092;-89.268;2023-11-21T02:12:01;98637.41;;;20.83
78369;BMP280;71113;43.092;-89.268;2023-11-21T02:14:28;98642.50;;;20.88
78369;BMP280;71113;43.092;-89.268;2023-11-21T02:16:55;98640.31;;;20.90
78369;BMP280;71113;43.092;-89.268;2023-11-21T02:19:23;98627.81;;;20.91
78369;BMP280;71113;43.092;-89.268;2023-11-21T02:21:52;98630.63;;;20.94
78369;BMP280;71113;43.092;-89.268;2023-11-21T02:24:23;98616.25;;;20.95
78369;BMP280;71113;43.092;-89.268;2023-11-21T02:26:54;98610.88;;;20.83
78369;BMP280;71113;43.092;-89.268;2023-11-21T02:29:22;98601.25;;;20.79
78369;BMP280;71113;43.092;-89.268;2023-11-21T02:31:54;98595.16;;;20.78
78369;BMP280;71113;43.092;-89.268;2023-11-21T02:34:23;98583.00;;;20.77
78369;BMP280;71113;43.092;-89.268;2023-11-21T02:36:51;98583.75;;;20.77
78369;BMP280;71113;43.092;-89.268;2023-11-21T02:39:19;98575.78;;;20.77
78369;BMP280;71113;43.092;-89.268;2023-11-21T02:41:48;98568.97;;;20.77
78369;BMP280;71113;43.092;-89.268;2023-11-21T02:44:15;98564.88;;;20.79
78369;BMP280;71113;43.092;-89.268;2023-11-21T02:46:42;98558.03;;;20.78
78369;BMP280;71113;43.092;-89.268;2023-11-21T02:49:09;98550.41;;;20.77
78369;BMP280;71113;43.092;-89.268;2023-11-21T02:51:36;98552.59;;;20.74
78369;BMP280;71113;43.092;-89.268;2023-11-21T02:54:05;98543.06;;;20.73
78369;BMP280;71113;43.092;-89.268;2023-11-21T02:56:35;98536.56;;;20.71
78369;BMP280;71113;43.092;-89.268;2023-11-21T02:59:03;98534.06;;;20.66
78369;BMP280;71113;43.092;-89.268;2023-11-21T03:01:30;98535.53;;;20.63
78369;BMP280;71113;43.092;-89.268;2023-11-21T03:03:57;98539.56;;;20.61
78369;BMP280;71113;43.092;-89.268;2023-11-21T03:06:23;98532.75;;;20.60
78369;BMP280;71113;43.092;-89.268;2023-11-21T03:08:49;98541.31;;;20.57
78369;BMP280;71113;43.092;-89.268;2023-11-21T03:11:16;98539.31;;;20.54
78369;BMP280;71113;43.092;-89.268;2023-11-21T03:13:42;98538.13;;;20.51
78369;BMP280;71113;43.092;-89.268;2023-11-21T03:16:10;98532.00;;;20.51
78369;BMP280;71113;43.092;-89.268;2023-11-21T03:18:38;98530.44;;;20.50
78369;BMP280;71113;43.092;-89.268;2023-11-21T03:21:06;98545.44;;;20.46
78369;BMP280;71113;43.092;-89.268;2023-11-21T03:23:36;98554.03;;;20.42
78369;BMP280;71113;43.092;-89.268;2023-11-21T03:26:03;98558.56;;;20.42
78369;BMP280;71113;43.092;-89.268;2023-11-21T03:28:29;98555.13;;;20.41
78369;BMP280;71113;43.092;-89.268;2023-11-21T03:30:56;98544.41;;;20.38
78369;BMP280;71113;43.092;-89.268;2023-11-21T03:33:22;98549.25;;;20.36
78369;BMP280;71113;43.092;-89.268;2023-11-21T03:35:48;98547.25;;;20.33
78369;BMP280;71113;43.092;-89.268;2023-11-21T03:38:15;98534.63;;;20.30
78369;BMP280;71113;43.092;-89.268;2023-11-21T03:40:41;98533.09;;;20.29
78369;BMP280;71113;43.092;-89.268;2023-11-21T03:43:07;98529.94;;;20.27
78369;BMP280;71113;43.092;-89.268;2023-11-21T03:45:33;98527.16;;;20.23
78369;BMP280;71113;43.092;-89.268;2023-11-21T03:47:59;98537.34;;;20.21
78369;BMP280;71113;43.092;-89.268;2023-11-21T03:50:29;98532.03;;;20.21
78369;BMP280;71113;43.092;-89.268;2023-11-21T03:52:54;98526.59;;;20.18
78369;BMP280;71113;43.092;-89.268;2023-11-21T03:55:20;98528.00;;;20.15
78369;BMP280;71113;43.092;-89.268;2023-11-21T03:57:46;98513.19;;;20.14
78369;BMP280;71113;43.092;-89.268;2023-11-21T04:00:12;98511.31;;;20.15
78369;BMP280;71113;43.092;-89.268;2023-11-21T04:02:38;98504.78;;;20.12
78369;BMP280;71113;43.092;-89.268;2023-11-21T04:05:05;98504.34;;;20.10
78369;BMP280;71113;43.092;-89.268;2023-11-21T04:07:32;98498.59;;;20.08
78369;BMP280;71113;43.092;-89.268;2023-11-21T04:09:59;98488.31;;;20.06
78369;BMP280;71113;43.092;-89.268;2023-11-21T04:12:25;98479.91;;;20.04
78369;BMP280;71113;43.092;-89.268;2023-11-21T04:14:51;98475.72;;;20.03
78369;BMP280;71113;43.092;-89.268;2023-11-21T04:17:20;98463.88;;;20.01
78369;BMP280;71113;43.092;-89.268;2023-11-21T04:19:46;98452.84;;;19.99
78369;BMP280;71113;43.092;-89.268;2023-11-21T04:22:12;98447.53;;;19.99
78369;BMP280;71113;43.092;-89.268;2023-11-21T04:24:38;98439.09;;;19.97
78369;BMP280;71113;43.092;-89.268;2023-11-21T04:27:04;98430.25;;;19.93
78369;BMP280;71113;43.092;-89.268;2023-11-21T04:29:30;98429.47;;;19.92
78369;BMP280;71113;43.092;-89.268;2023-11-21T04:31:56;98427.19;;;19.91
78369;BMP280;71113;43.092;-89.268;2023-11-21T04:34:22;98408.50;;;19.87
78369;BMP280;71113;43.092;-89.268;2023-11-21T04:36:47;98405.09;;;19.87
78369;BMP280;71113;43.092;-89.268;2023-11-21T04:39:13;98389.50;;;19.85
78369;BMP280;71113;43.092;-89.268;2023-11-21T04:41:39;98380.34;;;19.83
78369;BMP280;71113;43.092;-89.268;2023-11-21T04:44:06;98375.69;;;19.79
78369;BMP280;71113;43.092;-89.268;2023-11-21T04:46:32;98377.56;;;19.79
78369;BMP280;71113;43.092;-89.268;2023-11-21T04:48:58;98369.94;;;19.77
78369;BMP280;71113;43.092;-89.268;2023-11-21T04:51:24;98364.19;;;19.75
78369;BMP280;71113;43.092;-89.268;2023-11-21T04:53:50;98356.56;;;19.74
78369;BMP280;71113;43.092;-89.268;2023-11-21T04:56:16;98354.56;;;19.71
78369;BMP280;71113;43.092;-89.268;2023-11-21T04:58:42;98356.44;;;19.70
78369;BMP280;71113;43.092;-89.268;2023-11-21T05:01:08;98361.28;;;19.68
78369;BMP280;71113;43.092;-89.268;2023-11-21T05:03:34;98365.00;;;19.67
78369;BMP280;71113;43.092;-89.268;2023-11-21T05:06:00;98359.25;;;19.65
78369;BMP280;71113;43.092;-89.268;2023-11-21T05:08:26;98363.00;;;19.64
78369;BMP280;71113;43.092;-89.268;2023-11-21T05:10:52;98366.28;;;19.61
78369;BMP280;71113;43.092;-89.268;2023-11-21T05:13:20;98357.91;;;19.59
78369;BMP280;71113;43.092;-89.268;2023-11-21T05:15:46;98356.31;;;19.58
78369;BMP280;71113;43.092;-89.268;2023-11-21T05:18:12;98343.44;;;19.57
78369;BMP280;71113;43.092;-89.268;2023-11-21T05:20:39;98340.31;;;19.55
78369;BMP280;71113;43.092;-89.268;2023-11-21T05:23:07;98339.53;;;19.54
78369;BMP280;71113;43.092;-89.268;2023-11-21T05:25:33;98339.88;;;19.53
78369;BMP280;71113;43.092;-89.268;2023-11-21T05:27:59;98338.34;;;19.52
78369;BMP280;71113;43.092;-89.268;2023-11-21T05:30:27;98346.56;;;19.50
78369;BMP280;71113;43.092;-89.268;2023-11-21T05:32:53;98340.84;;;19.48
78369;BMP280;71113;43.092;-89.268;2023-11-21T05:35:19;98342.72;;;19.47
78369;BMP280;71113;43.092;-89.268;2023-11-21T05:37:45;98345.66;;;19.46
78369;BMP280;71113;43.092;-89.268;2023-11-21T05:40:12;98340.69;;;19.44
78369;BMP280;71113;43.092;-89.268;2023-11-21T05:42:39;98333.88;;;19.43
78369;BMP280;71113;43.092;-89.268;2023-11-21T05:45:07;98324.66;;;19.41
78369;BMP280;71113;43.092;-89.268;2023-11-21T05:47:44;98315.50;;;19.38
78369;BMP280;71113;43.092;-89.268;2023-11-21T05:50:13;98313.19;;;19.37
78369;BMP280;71113;43.092;-89.268;2023-11-21T05:52:43;98310.53;;;19.37
78369;BMP280;71113;43.092;-89.268;2023-11-21T05:55:10;98305.53;;;19.35
78369;BMP280;71113;43.092;-89.268;2023-11-21T05:57:37;98309.31;;;19.34
78369;BMP280;71113;43.092;-89.268;2023-11-21T06:00:12;98312.28;;;19.33
78369;BMP280;71113;43.092;-89.268;2023-11-21T06:02:41;98304.97;;;19.30
78369;BMP280;71113;43.092;-89.268;2023-11-21T06:05:08;98301.19;;;19.31
78369;BMP280;71113;43.092;-89.268;2023-11-21T06:07:34;98297.03;;;19.30
78369;BMP280;71113;43.092;-89.268;2023-11-21T06:10:02;98302.66;;;19.28
78369;BMP280;71113;43.092;-89.268;2023-11-21T06:12:31;98302.94;;;19.27
78369;BMP280;71113;43.092;-89.268;2023-11-21T06:15:04;98302.94;;;19.27
78369;BMP280;71113;43.092;-89.268;2023-11-21T06:17:31;98298.75;;;19.26
78369;BMP280;71113;43.092;-89.268;2023-11-21T06:19:57;98296.44;;;19.24
78369;BMP280;71113;43.092;-89.268;2023-11-21T06:22:23;98287.25;;;19.22
78369;BMP280;71113;43.092;-89.268;2023-11-21T06:24:49;98278.56;;;19.21
78369;BMP280;71113;43.092;-89.268;2023-11-21T06:27:15;98276.22;;;19.19
78369;BMP280;71113;43.092;-89.268;2023-11-21T06:29:41;98276.22;;;19.19
78369;BMP280;71113;43.092;-89.268;2023-11-21T06:32:08;98275.44;;;19.19
78369;BMP280;71113;43.092;-89.268;2023-11-21T06:34:34;98269.69;;;19.17
78369;BMP280;71113;43.092;-89.268;2023-11-21T06:36:59;98266.31;;;19.16
78369;BMP280;71113;43.092;-89.268;2023-11-21T06:39:26;98264.72;;;19.15
78369;BMP280;71113;43.092;-89.268;2023-11-21T06:41:53;98258.22;;;19.13
78369;BMP280;71113;43.092;-89.268;2023-11-21T06:44:18;98249.50;;;19.12
78369;BMP280;71113;43.092;-89.268;2023-11-21T06:46:45;98249.50;;;19.12
78369;BMP280;71113;43.092;-89.268;2023-11-21T06:49:11;98245.63;;;19.10
78369;BMP280;71113;43.092;-89.268;2023-11-21T06:51:37;98242.22;;;19.09
78369;BMP280;71113;43.092;-89.268;2023-11-21T06:54:03;98237.22;;;19.08
78369;BMP280;71113;43.092;-89.268;2023-11-21T06:56:29;98234.56;;;19.08
78369;BMP280;71113;43.092;-89.268;2023-11-21T06:58:55;98232.28;;;19.06
78369;BMP280;71113;43.092;-89.268;2023-11-21T07:01:21;98232.59;;;19.05
78369;BMP280;71113;43.092;-89.268;2023-11-21T07:03:46;98229.16;;;19.04
78369;BMP280;71113;43.092;-89.268;2023-11-21T07:06:12;98224.97;;;19.03
78369;BMP280;71113;43.092;-89.268;2023-11-21T07:08:38;98224.97;;;19.03
78369;BMP280;71113;43.092;-89.268;2023-11-21T07:11:04;98228.72;;;19.02
78369;BMP280;71113;43.092;-89.268;2023-11-21T07:13:30;98227.47;;;19.00
78369;BMP280;71113;43.092;-89.268;2023-11-21T07:15:59;98227.47;;;19.00
78369;BMP280;71113;43.092;-89.268;2023-11-21T07:18:24;98222.19;;;19.00
78369;BMP280;71113;43.092;-89.268;2023-11-21T07:20:50;98218.00;;;18.99
78369;BMP280;71113;43.092;-89.268;2023-11-21T07:23:17;98211.47;;;18.96
78369;BMP280;71113;43.092;-89.268;2023-11-21T07:25:43;98201.66;;;18.97
78369;BMP280;71113;43.092;-89.268;2023-11-21T07:28:09;98201.56;;;18.93
78369;BMP280;71113;43.092;-89.268;2023-11-21T07:30:35;98203.09;;;18.94
78369;BMP280;71113;43.092;-89.268;2023-11-21T07:33:01;98196.28;;;18.93
78369;BMP280;71113;43.092;-89.268;2023-11-21T07:35:27;98190.19;;;18.93
78369;BMP280;71113;43.092;-89.268;2023-11-21T07:37:53;98185.22;;;18.91
78369;BMP280;71113;43.092;-89.268;2023-11-21T07:40:18;98183.69;;;18.90
78369;BMP280;71113;43.092;-89.268;2023-11-21T07:42:44;98173.09;;;18.90
78369;BMP280;71113;43.092;-89.268;2023-11-21T07:45:10;98176.84;;;18.89
78369;BMP280;71113;43.092;-89.268;2023-11-21T07:47:37;98177.94;;;18.88
78369;BMP280;71113;43.092;-89.268;2023-11-21T07:50:05;98171.88;;;18.87
78369;BMP280;71113;43.092;-89.268;2023-11-21T07:52:32;98160.53;;;18.87
78369;BMP280;71113;43.092;-89.268;2023-11-21T07:54:59;98166.13;;;18.85
78369;BMP280;71113;43.092;-89.268;2023-11-21T07:57:24;98152.47;;;18.83
78369;BMP280;71113;43.092;-89.268;2023-11-21T07:59:51;98156.97;;;18.83
78369;BMP280;71113;43.092;-89.268;2023-11-21T08:02:19;98148.28;;;18.82
78369;BMP280;71113;43.092;-89.268;2023-11-21T08:04:45;98147.50;;;18.82
78369;BMP280;71113;43.092;-89.268;2023-11-21T08:07:11;98142.50;;;18.80
78369;BMP280;71113;43.092;-89.268;2023-11-21T08:09:36;98143.28;;;18.81
78369;BMP280;71113;43.092;-89.268;2023-11-21T08:12:03;98144.38;;;18.80
78369;BMP280;71113;43.092;-89.268;2023-11-21T08:14:30;98137.56;;;18.79
78369;BMP280;71113;43.092;-89.268;2023-11-21T08:16:56;98127.00;;;18.79
78369;BMP280;71113;43.092;-89.268;2023-11-21T08:19:23;98131.81;;;18.77
78369;BMP280;71113;43.092;-89.268;2023-11-21T08:21:52;98124.97;;;18.76
78369;BMP280;71113;43.092;-89.268;2023-11-21T08:24:21;98114.41;;;18.76
78369;BMP280;71113;43.092;-89.268;2023-11-21T08:26:46;98115.53;;;18.75
78369;BMP280;71113;43.092;-89.268;2023-11-21T08:29:12;98116.28;;;18.75
78369;BMP280;71113;43.092;-89.268;2023-11-21T08:31:39;98103.41;;;18.74
78369;BMP280;71113;43.092;-89.268;2023-11-21T08:34:04;98096.53;;;18.73
78369;BMP280;71113;43.092;-89.268;2023-11-21T08:36:30;98102.94;;;18.72
78369;BMP280;71113;43.092;-89.268;2023-11-21T08:38:57;98094.22;;;18.71
78369;BMP280;71113;43.092;-89.268;2023-11-21T08:41:23;98091.59;;;18.71
78369;BMP280;71113;43.092;-89.268;2023-11-21T08:43:52;98075.28;;;18.69
78369;BMP280;71113;43.092;-89.268;2023-11-21T08:46:19;98075.28;;;18.69
78369;BMP280;71113;43.092;-89.268;2023-11-21T08:48:45;98071.84;;;18.69
78369;BMP280;71113;43.092;-89.268;2023-11-21T08:51:11;98072.19;;;18.67
78369;BMP280;71113;43.092;-89.268;2023-11-21T08:53:38;98068.78;;;18.67
78369;BMP280;71113;43.092;-89.268;2023-11-21T08:56:04;98064.56;;;18.66
78369;BMP280;71113;43.092;-89.268;2023-11-21T08:58:33;98059.63;;;18.64
78369;BMP280;71113;43.092;-89.268;2023-11-21T09:00:59;98059.94;;;18.63
78369;BMP280;71113;43.092;-89.268;2023-11-21T09:03:25;98055.44;;;18.63
78369;BMP280;71113;43.092;-89.268;2023-11-21T09:05:51;98045.94;;;18.62
78369;BMP280;71113;43.092;-89.268;2023-11-21T09:08:17;98033.50;;;18.63
78369;BMP280;71113;43.092;-89.268;2023-11-21T09:10:42;98037.22;;;18.62
78369;BMP280;71113;43.092;-89.268;2023-11-21T09:13:10;98030.44;;;18.61
78369;BMP280;71113;43.092;-89.268;2023-11-21T09:15:36;98022.50;;;18.61
78369;BMP280;71113;43.092;-89.268;2023-11-21T09:18:02;98019.09;;;18.60
78369;BMP280;71113;43.092;-89.268;2023-11-21T09:20:28;98023.59;;;18.60
78369;BMP280;71113;43.092;-89.268;2023-11-21T09:22:54;98017.53;;;18.59
78369;BMP280;71113;43.092;-89.268;2023-11-21T09:25:21;98007.25;;;18.57
78369;BMP280;71113;43.092;-89.268;2023-11-21T09:27:48;98009.13;;;18.57
78369;BMP280;71113;43.092;-89.268;2023-11-21T09:30:14;98002.34;;;18.56
78369;BMP280;71113;43.092;-89.268;2023-11-21T09:32:40;97996.28;;;18.55
78369;BMP280;71113;43.092;-89.268;2023-11-21T09:35:06;97998.16;;;18.55
78369;BMP280;71113;43.092;-89.268;2023-11-21T09:37:35;97987.56;;;18.55
78369;BMP280;71113;43.092;-89.268;2023-11-21T09:40:01;97987.09;;;18.53
78369;BMP280;71113;43.092;-89.268;2023-11-21T09:42:39;97990.50;;;18.53
78369;BMP280;71113;43.092;-89.268;2023-11-21T09:45:18;97980.59;;;18.50
78369;BMP280;71113;43.092;-89.268;2023-11-21T09:48:07;97980.31;;;18.52
78369;BMP280;71113;43.092;-89.268;2023-11-21T09:50:37;97986.31;;;18.52
78369;BMP280;71113;43.092;-89.268;2023-11-21T09:53:18;97984.03;;;18.51
78369;BMP280;71113;43.092;-89.268;2023-11-21T09:55:50;97984.03;;;18.51
78369;BMP280;71113;43.092;-89.268;2023-11-21T09:58:18;97984.31;;;18.49
78369;BMP280;71113;43.092;-89.268;2023-11-21T10:00:47;97975.22;;;18.47
78369;BMP280;71113;43.092;-89.268;2023-11-21T10:03:13;97983.56;;;18.49
78369;BMP280;71113;43.092;-89.268;2023-11-21T10:05:42;97980.91;;;18.49
78369;BMP280;71113;43.092;-89.268;2023-11-21T10:08:09;97979.81;;;18.50
78369;BMP280;71113;43.092;-89.268;2023-11-21T10:10:43;97976.00;;;18.47
78369;BMP280;71113;43.092;-89.268;2023-11-21T10:13:12;97973.34;;;18.47
78369;BMP280;71113;43.092;-89.268;2023-11-21T10:15:42;97971.78;;;18.46
78369;BMP280;71113;43.092;-89.268;2023-11-21T10:18:14;97971.00;;;18.46
78369;BMP280;71113;43.092;-89.268;2023-11-21T10:20:41;97967.59;;;18.45
78369;BMP280;71113;43.092;-89.268;2023-11-21T10:23:08;97974.72;;;18.45
78369;BMP280;71113;43.092;-89.268;2023-11-21T10:25:37;97964.50;;;18.43
78369;BMP280;71113;43.092;-89.268;2023-11-21T10:28:03;97966.03;;;18.44
78369;BMP280;71113;43.092;-89.268;2023-11-21T10:30:34;97960.31;;;18.42
78369;BMP280;71113;43.092;-89.268;2023-11-21T10:33:03;97961.41;;;18.41
78369;BMP280;71113;43.092;-89.268;2023-11-21T10:35:46;97952.72;;;18.41
78369;BMP280;71113;43.092;-89.268;2023-11-21T10:38:14;97944.78;;;18.41
78369;BMP280;71113;43.092;-89.268;2023-11-21T10:40:40;97945.88;;;18.40
78369;BMP280;71113;43.092;-89.268;2023-11-21T10:43:08;97939.03;;;18.39
78369;BMP280;71113;43.092;-89.268;2023-11-21T10:45:38;97939.03;;;18.39
78369;BMP280;71113;43.092;-89.268;2023-11-21T10:48:13;97937.50;;;18.38
78369;BMP280;71113;43.092;-89.268;2023-11-21T10:50:44;97936.72;;;18.37
78369;BMP280;71113;43.092;-89.268;2023-11-21T10:53:11;97933.66;;;18.35
78369;BMP280;71113;43.092;-89.268;2023-11-21T10:55:38;97934.41;;;18.36
78369;BMP280;71113;43.092;-89.268;2023-11-21T10:58:05;97929.91;;;18.36
78369;BMP280;71113;43.092;-89.268;2023-11-21T11:00:32;97926.78;;;18.34
78369;BMP280;71113;43.092;-89.268;2023-11-21T11:02:59;97931.78;;;18.36
78369;BMP280;71113;43.092;-89.268;2023-11-21T11:05:27;97924.63;;;18.36
78369;BMP280;71113;43.092;-89.268;2023-11-21T11:08:05;97931.72;;;18.44
78369;BMP280;71113;43.092;-89.268;2023-11-21T11:10:31;97920.78;;;18.54
78369;BMP280;71113;43.092;-89.268;2023-11-21T11:12:58;97920.56;;;18.60
78369;BMP280;71113;43.092;-89.268;2023-11-21T11:15:25;97921.38;;;18.72
78369;BMP280;71113;43.092;-89.268;2023-11-21T11:17:52;97924.63;;;18.78
78369;BMP280;71113;43.092;-89.268;2023-11-21T11:20:23;97928.59;;;18.84
78369;BMP280;71113;43.092;-89.268;2023-11-21T11:28:29;97908.31;;;19.09
78369;BMP280;71113;43.092;-89.268;2023-11-21T11:31:00;97915.81;;;19.19
78369;BMP280;71113;43.092;-89.268;2023-11-21T11:33:39;97911.19;;;19.16
78369;BMP280;71113;43.092;-89.268;2023-11-21T11:38:58;97915.06;;;19.31
78369;BMP280;71113;43.092;-89.268;2023-11-21T11:41:29;97911.13;;;19.37
78369;BMP280;71113;43.092;-89.268;2023-11-21T11:43:58;97914.75;;;19.44
78369;BMP280;71113;43.092;-89.268;2023-11-21T11:46:45;97912.25;;;19.48
78369;BMP280;71113;43.092;-89.268;2023-11-21T11:49:32;97912.88;;;19.57
78369;BMP280;71113;43.092;-89.268;2023-11-21T11:52:34;97914.78;;;19.69
78369;BMP280;71113;43.092;-89.268;2023-11-21T11:55:02;97908.72;;;19.68
78369;BMP280;71113;43.092;-89.268;2023-11-21T11:57:34;97922.50;;;19.74
78369;BMP280;71113;43.092;-89.268;2023-11-21T12:00:20;97918.09;;;19.78
78369;BMP280;71113;43.092;-89.268;2023-11-21T12:02:48;97919.75;;;19.83
78369;BMP280;71113;43.092;-89.268;2023-11-21T12:05:16;97915.44;;;19.90
78369;BMP280;71113;43.092;-89.268;2023-11-21T12:07:51;97912.78;;;20.02
78369;BMP280;71113;43.092;-89.268;2023-11-21T12:10:24;97911.78;;;20.07
78369;BMP280;71113;43.092;-89.268;2023-11-21T12:12:52;97912.91;;;19.94
78369;BMP280;71113;43.092;-89.268;2023-11-21T12:15:19;97917.88;;;19.83
78369;BMP280;71113;43.092;-89.268;2023-11-21T12:17:46;97920.41;;;19.79
78369;BMP280;71113;43.092;-89.268;2023-11-21T12:20:13;97915.75;;;19.76
78369;BMP280;71113;43.092;-89.268;2023-11-21T12:22:47;97919.50;;;19.75
78369;BMP280;71113;43.092;-89.268;2023-11-21T12:25:14;97918.00;;;19.74
78369;BMP280;71113;43.092;-89.268;2023-11-21T12:27:48;97914.56;;;19.74
78369;BMP280;71113;43.092;-89.268;2023-11-21T12:30:25;97911.13;;;19.73
78369;BMP280;71113;43.092;-89.268;2023-11-21T12:32:55;97904.31;;;19.72
78369;BMP280;71113;43.092;-89.268;2023-11-21T12:35:25;97908.50;;;19.73
78369;BMP280;71113;43.092;-89.268;2023-11-21T12:37:52;97907.72;;;19.73
78369;BMP280;71113;43.092;-89.268;2023-11-21T12:40:25;97911.91;;;19.74
78369;BMP280;71113;43.092;-89.268;2023-11-21T12:42:53;97918.88;;;19.78
78369;BMP280;71113;43.092;-89.268;2023-11-21T12:45:23;97919.97;;;19.90
78369;BMP280;71113;43.092;-89.268;2023-11-21T12:47:53;97910.13;;;20.02
78369;BMP280;71113;43.092;-89.268;2023-11-21T12:50:25;97909.59;;;20.09
78369;BMP280;71113;43.092;-89.268;2023-11-21T12:52:58;97907.72;;;20.09
78369;BMP280;71113;43.092;-89.268;2023-11-21T12:55:24;97903.63;;;20.00
78369;BMP280;71113;43.092;-89.268;2023-11-21T12:57:55;97900.88;;;19.96
78369;BMP280;71113;43.092;-89.268;2023-11-21T13:00:44;97898.88;;;19.93
78369;BMP280;71113;43.092;-89.268;2023-11-21T13:03:12;97895.81;;;19.91
78369;BMP280;71113;43.092;-89.268;2023-11-21T13:05:41;97892.38;;;19.91
78369;BMP280;71113;43.092;-89.268;2023-11-21T13:08:16;97887.09;;;19.91
78369;BMP280;71113;43.092;-89.268;2023-11-21T13:10:45;97889.75;;;19.91
78369;BMP280;71113;43.092;-89.268;2023-11-21T13:13:14;97896.91;;;19.90
78369;BMP280;71113;43.092;-89.268;2023-11-21T13:16:00;97895.72;;;19.88
78369;BMP280;71113;43.092;-89.268;2023-11-21T13:18:27;97891.94;;;19.89
78369;BMP280;71113;43.092;-89.268;2023-11-21T13:20:55;97898.34;;;19.88
78369;BMP280;71113;43.092;-89.268;2023-11-21T13:23:22;97888.88;;;19.87
78369;BMP280;71113;43.092;-89.268;2023-11-21T13:25:48;97890.41;;;19.88
78369;BMP280;71113;43.092;-89.268;2023-11-21T13:28:15;97903.84;;;19.95
78369;BMP280;71113;43.092;-89.268;2023-11-21T13:30:43;97899.19;;;20.04
78369;BMP280;71113;43.092;-89.268;2023-11-21T13:33:10;97896.44;;;20.13
78369;BMP280;71113;43.092;-89.268;2023-11-21T13:35:39;97886.13;;;20.23
78369;BMP280;71113;43.092;-89.268;2023-11-21T13:38:13;97893.63;;;20.33
78369;BMP280;71113;43.092;-89.268;2023-11-21T13:40:41;97893.28;;;20.35
78369;BMP280;71113;43.092;-89.268;2023-11-21T13:43:15;97890.66;;;20.23
78369;BMP280;71113;43.092;-89.268;2023-11-21T13:45:43;97887.50;;;20.17
78369;BMP280;71113;43.092;-89.268;2023-11-21T13:48:10;97877.53;;;20.14
78369;BMP280;71113;43.092;-89.268;2023-11-21T13:50:42;97876.81;;;20.14
78369;BMP280;71113;43.092;-89.268;2023-11-21T13:53:26;97874.47;;;20.12
78369;BMP280;71113;43.092;-89.268;2023-11-21T13:55:53;97882.41;;;20.12
78369;BMP280;71113;43.092;-89.268;2023-11-21T13:58:26;97871.38;;;20.10